Saturday, December 16, 2017, 2:04 AM EST
Back to Local

KMHT, Manchester Airport

Location: Manchester, NH, United States Lat: 42.933
Local Time: 2:04 AM EST ( 7:04 GMT) Lon: -71.433
Time Zone: US/Eastern Elev: 232 ft

Show me the last for .
Show Decoded

2017-12-16 01:53 METAR KMHT 160653Z 27003KT 10SM SCT100 M06/M11 A2977 RMK AO2 SLP102 T10611106 =
2017-12-16 00:53 METAR KMHT 160553Z 30007KT 10SM OVC100 M06/M10 A2978 RMK AO2 SLP104 4/004
                 T10561100 11050 21061 56014 =
2017-12-15 23:53 METAR KMHT 160453Z 00000KT 10SM FEW070 BKN100 M06/M10 A2979 RMK AO2 SLP107
                 T10561100 410391122 =
2017-12-15 22:53 METAR KMHT 160353Z 23003KT 10SM BKN070 OVC110 M05/M10 A2981 RMK AO2 SLP114
                 T10501100 =
2017-12-15 21:53 METAR KMHT 160253Z 20003KT 10SM BKN060 OVC070 M05/M11 A2982 RMK AO2 SLP118
                 T10501106 58008 =
2017-12-15 20:53 METAR KMHT 160153Z 20004KT 10SM OVC080 M05/M11 A2984 RMK AO2 SLP126 T10501106 =
2017-12-15 19:53 METAR KMHT 160053Z 19003KT 10SM OVC070 M05/M11 A2984 RMK AO2 SLP127 T10501111 =
2017-12-15 18:53 METAR KMHT 152353Z 00000KT 10SM OVC085 M05/M11 A2984 RMK AO2 SLP127 4/004
                 T10501111 11039 21050 56026 =
2017-12-15 17:53 METAR KMHT 152253Z 00000KT 10SM OVC060 M04/M12 A2987 RMK AO2 SLP135 T10441117 =
2017-12-15 16:53 METAR KMHT 152153Z 10003KT 10SM OVC085 M04/M12 A2989 RMK AO2 SLP144 T10441117 =
2017-12-15 15:53 METAR KMHT 152053Z 13004KT 10SM OVC110 M04/M12 A2992 RMK AO2 SLP154 T10441117
                 58018 =
2017-12-15 14:53 METAR KMHT 151953Z 20005KT 10SM OVC100 M04/M12 A2995 RMK AO2 SLP162 T10441122 =
2017-12-15 13:53 METAR KMHT 151853Z 20006KT 10SM BKN130 OVC200 M04/M13 A2995 RMK AO2 SLP164
                 T10441128 =
2017-12-15 12:53 METAR KMHT 151753Z 00000KT 10SM BKN200 M04/M13 A2998 RMK AO2 SLP171 4/004
                 T10441128 11044 21122 58029 =
2017-12-15 11:53 METAR KMHT 151653Z 00000KT 10SM BKN200 M05/M13 A3000 RMK AO2 SLP180 T10501128 =
2017-12-15 10:53 METAR KMHT 151553Z 00000KT 10SM BKN200 M07/M13 A3004 RMK AO2 SLP193 T10671133 =
2017-12-15 09:53 METAR KMHT 151453Z 18003KT 10SM BKN250 M08/M13 A3006 RMK AO2 SLP201 T10781133
                 53013 =
2017-12-15 08:53 METAR KMHT 151353Z 19003KT 10SM BKN250 M11/M14 A3005 RMK AO2 SLP198 T11111144 =
2017-12-15 07:53 METAR KMHT 151253Z 22004KT 10SM BKN250 M12/M15 A3003 RMK AO2 SLP192 T11171150 =
2017-12-15 06:53 METAR KMHT 151153Z VRB03KT 10SM SCT250 M12/M16 A3002 RMK AO2 SLP188 4/004
                 T11171161 11089 21122 51007 =
2017-12-15 05:53 METAR KMHT 151053Z 18004KT 10SM SCT250 M12/M16 A3002 RMK AO2 SLP186 T11171161 =
2017-12-15 04:53 METAR KMHT 150953Z 21005KT 10SM SCT250 M10/M16 A3001 RMK AO2 SLP185 T11001156 =
2017-12-15 03:53 METAR KMHT 150853Z 00000KT 10SM FEW250 M11/M16 A3000 RMK AO2 SLP181 T11111161
                 51014 =
2017-12-15 02:53 METAR KMHT 150753Z 19003KT 10SM FEW250 M10/M16 A3000 RMK AO2 SLP179 T11001156 =

Support USWX by starting your Amazon purchase here.